Airfield :
LOGIN :

Register | Disclaimer

   EN    FR    IT 

 










Legend :    VFR   Marginal VFR   IFR   Intensive IFR   Very Intensive IFR
Visi :
Ceiling :
>= 8 km
>= 3000ft
5 to 8 km
1000 to 3000 ft
1500m to 5 km
500 to 1000 ft
800 to 1500m
200 to 500 ft
< 800m
< 200 ft
Symbols :   Thunderstorms  Fog  Heavy snow  Heavy precipitations  Wind > 20 kt
SIGMETs :     Misc.  Thunderstorms  Icing  Turbulence  Mountain Waves  Volcanic Ashes







- Airport Elevation : 157 ft
- IATA code : LIL
- Download approach charts


LFQQ - Lille Lesquin

CURRENT METAR :
  • 181830Z AUTO 15006KT 9000 FEW008 00/M01 Q1018 TEMPO BKN012

EXPIRED METARs :
  • 181800Z AUTO 14004KT 9000 SCT007 01/M01 Q1018 TEMPO BKN012
  • 181730Z AUTO 14007KT 7000 OVC007 02/00 Q1018 TEMPO BKN012
  • 181700Z AUTO 13009KT 8000 BKN008 02/01 Q1018 NOSIG
  • 181630Z AUTO 14008KT 9000 FEW010 BKN150 02/00 Q1018 TEMPO BKN008
  • 181600Z AUTO 15008KT 9999 SCT013 BKN150 03/01 Q1018 TEMPO BKN008
  • 181530Z AUTO 14009KT CAVOK 04/01 Q1018 TEMPO BKN008

TAF TAF LFQQ
Valid from the 18 at 18:00 until the 20 at 00:00 UTC


181700Z 1818/1924 14007KT CAVOK
PROB30
TEMPO 1818/1820 BKN012
BECMG 1920/1923 BKN010 OVC030
ATIS : +33 3 20 16 19 54
No reported NOTAMs for that airfield.



MET'MAP, your aeronautical weather chart ! - Copyright ORBIFLY December 2007 - Disclaimer

ORBIFLY MET'MAP TEAM :

Programming & Development : Alexandra Zaïnal
Concept & Development : Baudouin d'Aumeries
Co-Development & Prog : Marc-Olivier Méhu
Technical & hardware support : Manuel Goepfert

Contact : metmap@orbifly.com




SOURCES & CREDITS :

   NOAA